Portoroz, Slovenia

11:10 PM CEST on July 05, 2015 (GMT +0200)
KPSS - LERA | | Change Station
CLOSE
Current Station
Personal Weather Station
Location: Portoroz, PRIMORSKA
Elevation: 15 ft
Nearby Weather Stations

Elev 15 ft 45.49 °N, 13.60 °E | Updated 11 minutes ago

Clear
Clear
76.8 °F
Feels Like 78 °F
N
8.0
Wind Variable Wind from SSE
Gusts 10.0 mph

Today
High -- | Low -- °F
--% Chance of Precip.
Yesterday
High -- | Low -- °F
Precip. -- in
5:22 AM 8:57 PM
Waning Gibbous, 82% visible
Pressure 30.04 in
Visibility 6.2 miles
Clouds
Heat Index 78 °F
Dew Point 71 °F
Humidity 82%
Rainfall 0.00 in
Snow Depth Not available.
UV 0.0 out of 12
Pollen Not available.
Air Quality Not available.
Flu Activity Not available.
METAR LJPZ 052100Z AUTO 12007KT 9999 NCD 24/21 Q1017

More Conditions Fewer Conditions

Pressure 30.04 in
Visibility 6.2 miles
Clouds
Heat Index 78 °F
Dew Point 71 °F
Humidity 82%
Rainfall 0.00 in
Snow Depth Not available.
UV 0.0 out of 12
Pollen Not available.
Air Quality Not available.
Flu Activity Not available.
METAR LJPZ 052100Z AUTO 12007KT 9999 NCD 24/21 Q1017

More Conditions Fewer Conditions

10-Day Weather Forecast

×

Almanac

Astronomy

Jul. 05, 2015 Rise Set
Actual Time
Civil Twilight
Nautical Twilight
Astronomical Twilight
Moon
Length of Visible Light
Length of Day
Tomorrow will be .
, % of the Moon is Illuminated

Today's Extremes

Country Highs Country Lows

Community

WunderPhotos

Upload Photos

1,835,386 photos uploaded!

WunderBlogs® & News

Nearby

Air Quality

  Air Quality AQ Index Pollutant
Not available.

Snow Depth

Station Depth Elevation

Earthquake Activity

City Distance Mag. Time & Date
Minimum magnitude displayed is 2.5.

Coastal Water Temperatures

Place Temperature

Stations

Nearby Weather Stations

Station Location Temp. Windchill Dew Point Humidity Wind Precip. Elev Updated Type